createdAt,value
2018-05-23T00:01:59.168Z,50.40
2018-05-23T00:04:27.367Z,50.50
2018-05-23T00:06:55.590Z,50.40
2018-05-23T00:09:23.800Z,50.50
2018-05-23T00:11:52.008Z,50.50
2018-05-23T00:14:20.225Z,50.50
2018-05-23T00:16:48.442Z,50.50
2018-05-23T00:19:16.655Z,50.50
2018-05-23T00:21:45.658Z,50.70
2018-05-23T00:24:13.878Z,50.50
2018-05-23T00:26:42.084Z,50.60
2018-05-23T00:29:10.295Z,50.70
2018-05-23T00:31:38.527Z,50.60
2018-05-23T00:34:06.743Z,50.60
2018-05-23T00:36:34.965Z,50.70
2018-05-23T00:39:03.191Z,50.70
2018-05-23T00:41:31.435Z,50.70
2018-05-23T00:44:00.414Z,50.80
2018-05-23T00:46:28.623Z,50.70
2018-05-23T00:48:56.831Z,50.80
2018-05-23T00:51:25.054Z,50.70
2018-05-23T00:53:53.315Z,50.70
2018-05-23T00:56:21.518Z,50.70
2018-05-23T00:58:49.728Z,50.80
2018-05-23T01:01:17.930Z,50.60
2018-05-23T01:03:46.177Z,50.70
2018-05-23T01:06:14.439Z,50.70
2018-05-23T01:08:42.647Z,50.80
2018-05-23T01:11:10.863Z,50.80
2018-05-23T01:13:39.072Z,50.80
2018-05-23T01:16:07.286Z,50.70
2018-05-23T01:18:35.639Z,50.70
2018-05-23T01:21:04.643Z,50.80
2018-05-23T01:23:32.927Z,50.80
2018-05-23T01:26:01.119Z,50.80
2018-05-23T01:28:29.335Z,50.80
2018-05-23T01:30:57.554Z,50.80
2018-05-23T01:33:25.785Z,50.80
2018-05-23T01:35:54.070Z,50.80
2018-05-23T01:38:22.271Z,50.90
2018-05-23T01:40:50.486Z,51.50
2018-05-23T01:43:18.713Z,50.80
2018-05-23T01:45:46.914Z,50.80
2018-05-23T01:48:15.116Z,50.90
2018-05-23T01:50:43.323Z,50.80
2018-05-23T01:53:11.551Z,50.90
2018-05-23T01:55:39.782Z,50.90
2018-05-23T01:58:08.006Z,50.80
2018-05-23T02:00:36.224Z,50.90
2018-05-23T02:03:04.431Z,50.90
2018-05-23T02:05:32.753Z,50.90
2018-05-23T02:08:00.967Z,50.90
2018-05-23T02:10:29.167Z,50.80
2018-05-23T02:12:57.370Z,50.80
2018-05-23T02:15:25.575Z,50.80
2018-05-23T02:17:53.790Z,50.80
2018-05-23T02:20:22.031Z,50.90
2018-05-23T02:22:50.227Z,50.90
2018-05-23T02:25:18.483Z,50.80
2018-05-23T02:27:46.700Z,50.90
2018-05-23T02:30:14.914Z,51.00
2018-05-23T02:32:43.891Z,50.90
2018-05-23T02:35:12.854Z,50.90
2018-05-23T02:37:41.074Z,50.80
2018-05-23T02:40:09.280Z,50.80
2018-05-23T02:42:37.486Z,50.90
2018-05-23T02:45:05.694Z,50.90
2018-05-23T02:47:33.887Z,50.90
2018-05-23T02:50:02.117Z,50.90
2018-05-23T02:52:30.319Z,50.80
2018-05-23T02:54:58.544Z,50.90
2018-05-23T02:57:26.761Z,50.90
2018-05-23T02:59:55.002Z,51.50
2018-05-23T03:02:23.199Z,50.90
2018-05-23T03:04:51.413Z,50.90
2018-05-23T03:07:19.626Z,50.90
2018-05-23T03:09:47.839Z,50.90
2018-05-23T03:12:16.043Z,50.90
2018-05-23T03:14:44.251Z,50.90
2018-05-23T03:17:12.467Z,50.90
2018-05-23T03:19:40.683Z,50.80
2018-05-23T03:22:08.959Z,50.80
2018-05-23T03:24:37.111Z,50.80
2018-05-23T03:27:05.328Z,50.80
2018-05-23T03:29:33.536Z,50.80
2018-05-23T03:32:01.767Z,50.90
2018-05-23T03:34:30.062Z,50.80
2018-05-23T03:36:58.271Z,50.80
2018-05-23T03:39:26.475Z,50.90
2018-05-23T03:41:54.683Z,50.90
2018-05-23T03:44:22.896Z,50.90
2018-05-23T03:46:51.115Z,50.90
2018-05-23T03:49:19.343Z,50.90
2018-05-23T03:51:47.554Z,50.80
2018-05-23T03:54:15.759Z,51.60
2018-05-23T03:56:43.956Z,50.90
2018-05-23T03:59:12.187Z,50.70
2018-05-23T04:01:53.045Z,50.90
2018-05-23T04:04:32.975Z,50.80
2018-05-23T04:10:06.987Z,50.70
2018-05-23T04:12:35.215Z,50.80
2018-05-23T04:15:04.171Z,50.80
2018-05-23T04:17:32.417Z,50.80
2018-05-23T04:20:00.628Z,50.40
2018-05-23T04:22:29.618Z,50.90
2018-05-23T04:24:57.925Z,50.70
2018-05-23T04:27:26.019Z,50.80
2018-05-23T04:29:54.246Z,50.80
2018-05-23T04:32:22.454Z,50.70
2018-05-23T04:34:50.659Z,50.80
2018-05-23T04:37:18.883Z,50.80
2018-05-23T04:39:47.084Z,50.80
2018-05-23T04:42:15.303Z,51.50
2018-05-23T04:44:43.524Z,50.90
2018-05-23T04:47:11.739Z,50.90
2018-05-23T04:49:39.982Z,50.90
2018-05-23T04:52:08.178Z,50.80
2018-05-23T04:54:36.440Z,50.90
2018-05-23T04:57:05.349Z,50.80
2018-05-23T04:59:35.875Z,50.90
2018-05-23T05:02:04.106Z,50.80
2018-05-23T05:04:32.308Z,50.80
2018-05-23T05:07:00.507Z,50.80
2018-05-23T05:09:28.731Z,50.80
2018-05-23T05:11:56.959Z,50.90
2018-05-23T05:14:25.222Z,50.90
2018-05-23T05:16:53.406Z,51.50
2018-05-23T05:19:21.607Z,50.90
2018-05-23T05:21:49.814Z,50.90
2018-05-23T05:24:18.055Z,51.50
2018-05-23T05:26:46.240Z,50.90
2018-05-23T05:29:14.441Z,50.80
2018-05-23T05:31:42.678Z,50.80
2018-05-23T05:34:10.846Z,50.80
2018-05-23T05:36:39.817Z,50.80
2018-05-23T05:39:08.068Z,50.80
2018-05-23T05:41:36.295Z,50.90
2018-05-23T05:44:04.512Z,50.90
2018-05-23T05:46:32.721Z,50.80
2018-05-23T05:49:00.919Z,50.90
2018-05-23T05:51:29.278Z,51.60
2018-05-23T05:53:57.494Z,50.80
2018-05-23T05:56:25.682Z,50.90
2018-05-23T05:58:53.890Z,50.70
2018-05-23T06:01:22.095Z,50.80
2018-05-23T06:03:50.339Z,50.80
2018-05-23T06:06:18.538Z,50.80
2018-05-23T06:08:46.741Z,50.80
2018-05-23T06:11:14.943Z,50.90
2018-05-23T06:13:43.145Z,50.90
2018-05-23T06:16:11.350Z,50.90
2018-05-23T06:18:39.551Z,50.80
2018-05-23T06:21:07.773Z,50.80
2018-05-23T06:23:35.959Z,50.80
2018-05-23T06:26:04.266Z,50.80
2018-05-23T06:28:32.486Z,50.80
2018-05-23T06:31:01.005Z,50.70
2018-05-23T06:33:29.955Z,50.70
2018-05-23T06:35:58.189Z,50.60
2018-05-23T06:38:26.376Z,50.60
2018-05-23T06:40:54.601Z,50.60
2018-05-23T06:43:22.824Z,50.70
2018-05-23T06:45:51.031Z,50.60
2018-05-23T06:48:19.393Z,50.60
2018-05-23T06:50:47.596Z,50.50
2018-05-23T06:53:15.902Z,50.70
2018-05-23T06:55:44.050Z,50.40
2018-05-23T06:58:12.292Z,50.40
2018-05-23T07:00:40.567Z,50.50
2018-05-23T07:03:08.762Z,50.50
2018-05-23T07:05:37.033Z,50.50
2018-05-23T07:08:05.236Z,50.60
2018-05-23T07:10:33.458Z,50.60
2018-05-23T07:13:01.671Z,50.60
2018-05-23T07:15:29.863Z,50.70
2018-05-23T07:17:58.134Z,50.70
2018-05-23T07:20:27.072Z,50.70
2018-05-23T07:22:55.300Z,50.60
2018-05-23T07:25:23.549Z,50.60
2018-05-23T07:27:51.750Z,50.40
2018-05-23T07:30:19.987Z,50.60
2018-05-23T07:32:48.955Z,50.50
2018-05-23T07:35:17.166Z,50.50
2018-05-23T07:37:45.432Z,50.30
2018-05-23T07:40:13.639Z,50.50
2018-05-23T07:42:41.890Z,50.30
2018-05-23T07:45:10.088Z,50.40
2018-05-23T07:47:38.296Z,50.40
2018-05-23T07:50:06.518Z,50.30
2018-05-23T07:52:34.719Z,50.20
2018-05-23T07:55:02.944Z,50.20
2018-05-23T07:57:31.914Z,50.20
2018-05-23T08:00:00.120Z,50.20
2018-05-23T08:02:28.331Z,50.20
2018-05-23T08:04:56.558Z,50.20
2018-05-23T08:07:24.767Z,50.20
2018-05-23T08:09:53.487Z,50.10
2018-05-23T08:12:21.696Z,50.10
2018-05-23T08:14:49.894Z,50.00
2018-05-23T08:17:18.088Z,50.00
2018-05-23T08:19:46.311Z,49.80
2018-05-23T08:22:14.507Z,49.70
2018-05-23T08:24:42.722Z,49.70
2018-05-23T08:27:10.940Z,49.60
2018-05-23T08:29:39.387Z,49.60
2018-05-23T08:32:07.555Z,49.50
2018-05-23T08:34:35.783Z,49.40
2018-05-23T08:37:04.015Z,49.50
2018-05-23T08:39:32.226Z,49.50
2018-05-23T08:42:00.430Z,49.40
2018-05-23T08:44:28.671Z,49.50
2018-05-23T08:46:56.875Z,49.60
2018-05-23T08:49:25.074Z,49.50
2018-05-23T08:51:53.463Z,49.40
2018-05-23T08:54:22.445Z,49.40
2018-05-23T08:56:50.674Z,49.30
2018-05-23T08:59:18.966Z,49.30
2018-05-23T09:01:47.195Z,49.30
2018-05-23T09:04:15.409Z,49.30
2018-05-23T09:06:43.723Z,49.20
2018-05-23T09:09:11.949Z,49.20
2018-05-23T09:11:40.155Z,49.20
2018-05-23T09:14:08.370Z,49.20
2018-05-23T09:16:36.600Z,49.10
2018-05-23T09:19:04.844Z,49.10
2018-05-23T09:21:33.087Z,49.10
2018-05-23T09:24:02.062Z,49.00
2018-05-23T09:26:30.261Z,49.00
2018-05-23T09:28:58.464Z,48.90
2018-05-23T09:31:26.891Z,48.80
2018-05-23T09:33:55.890Z,48.70
2018-05-23T09:36:24.152Z,48.60
2018-05-23T09:38:52.362Z,48.70
2018-05-23T09:41:20.563Z,48.60
2018-05-23T09:43:48.770Z,49.30
2018-05-23T09:46:16.990Z,48.70
2018-05-23T09:48:45.199Z,48.70
2018-05-23T09:51:13.415Z,48.70
2018-05-23T09:53:41.616Z,48.60
2018-05-23T09:56:09.843Z,48.60
2018-05-23T09:58:38.058Z,48.60
2018-05-23T10:01:07.023Z,48.70
2018-05-23T10:03:35.280Z,48.60
2018-05-23T10:06:03.487Z,48.60
2018-05-23T10:08:31.695Z,48.70
2018-05-23T10:10:59.917Z,48.70
2018-05-23T10:13:28.160Z,48.60
2018-05-23T10:15:56.486Z,48.70
2018-05-23T10:18:24.695Z,48.80
2018-05-23T10:20:52.898Z,48.80
2018-05-23T10:23:21.131Z,48.80
2018-05-23T10:25:49.348Z,48.80
2018-05-23T10:28:18.347Z,48.80
2018-05-23T10:30:47.316Z,48.70
2018-05-23T10:33:15.636Z,48.70
2018-05-23T10:35:43.803Z,48.60
2018-05-23T10:38:12.799Z,48.70
2018-05-23T10:40:41.009Z,48.70
2018-05-23T10:43:09.233Z,48.60
2018-05-23T10:45:37.439Z,48.50
2018-05-23T10:48:05.668Z,48.40
2018-05-23T10:50:33.903Z,48.40
2018-05-23T10:53:02.160Z,48.50
2018-05-23T10:55:30.352Z,48.50
2018-05-23T10:57:58.572Z,48.50
2018-05-23T11:00:27.568Z,48.70
2018-05-23T11:02:56.637Z,48.70
2018-05-23T11:05:24.747Z,48.60
2018-05-23T11:07:52.959Z,48.80
2018-05-23T11:10:21.174Z,49.00
2018-05-23T11:12:49.400Z,49.00
2018-05-23T11:15:18.442Z,49.10
2018-05-23T11:17:46.579Z,49.10
2018-05-23T11:20:14.827Z,49.10
2018-05-23T11:22:43.801Z,49.20
2018-05-23T11:25:12.000Z,49.10
2018-05-23T11:27:40.221Z,49.20
2018-05-23T11:30:08.439Z,49.20
2018-05-23T11:32:36.663Z,49.20
2018-05-23T11:35:04.900Z,49.30
2018-05-23T11:37:33.178Z,49.30
2018-05-23T11:40:01.349Z,49.40
2018-05-23T11:42:29.559Z,49.50
2018-05-23T11:44:57.782Z,49.30
2018-05-23T11:47:25.982Z,49.50
2018-05-23T11:49:54.200Z,49.40
2018-05-23T11:52:23.181Z,49.50
2018-05-23T11:54:52.172Z,49.60
2018-05-23T11:57:20.372Z,49.50
2018-05-23T11:59:48.593Z,49.50
2018-05-23T12:02:16.795Z,49.40
2018-05-23T12:04:45.149Z,49.30
2018-05-23T12:07:13.327Z,49.20
2018-05-23T12:09:41.530Z,49.10
2018-05-23T12:12:10.499Z,48.80
2018-05-23T12:14:38.702Z,48.80
2018-05-23T12:17:06.962Z,48.80
2018-05-23T12:19:35.169Z,48.80
2018-05-23T12:22:03.378Z,48.90
2018-05-23T12:24:31.577Z,49.00
2018-05-23T12:26:59.791Z,49.00
2018-05-23T12:29:28.003Z,49.00
2018-05-23T12:31:56.209Z,49.00
2018-05-23T12:34:24.423Z,49.10
2018-05-23T12:36:52.627Z,49.10
2018-05-23T12:39:20.846Z,49.00
2018-05-23T12:41:49.058Z,48.90
2018-05-23T12:44:17.263Z,48.90
2018-05-23T12:46:45.463Z,48.80
2018-05-23T12:49:13.655Z,48.80
2018-05-23T12:51:41.867Z,48.80
2018-05-23T12:54:10.088Z,48.80
2018-05-23T12:56:38.332Z,48.80
2018-05-23T12:59:06.538Z,48.90
2018-05-23T13:01:34.747Z,48.90
2018-05-23T13:04:02.951Z,49.00
2018-05-23T13:06:31.164Z,49.10
2018-05-23T13:08:59.362Z,49.20
2018-05-23T13:11:27.572Z,49.30
2018-05-23T13:13:55.774Z,49.30
2018-05-23T13:16:23.970Z,49.40
2018-05-23T13:18:52.939Z,49.40
2018-05-23T13:21:21.150Z,49.40
2018-05-23T13:23:49.354Z,49.40
2018-05-23T13:26:17.579Z,49.40
2018-05-23T13:28:45.785Z,49.40
2018-05-23T13:31:13.988Z,49.40
2018-05-23T13:33:42.958Z,49.40
2018-05-23T13:36:11.163Z,49.30
2018-05-23T13:38:39.390Z,49.30
2018-05-23T13:41:07.601Z,49.30
2018-05-23T13:43:35.807Z,49.20
2018-05-23T13:46:04.003Z,49.10
2018-05-23T13:48:32.217Z,49.00
2018-05-23T13:51:00.446Z,48.90
2018-05-23T13:53:28.669Z,48.90
2018-05-23T13:55:56.846Z,48.80
2018-05-23T13:58:25.827Z,48.80
2018-05-23T14:00:54.795Z,48.90
2018-05-23T14:03:23.008Z,48.80
2018-05-23T14:05:51.210Z,49.10
2018-05-23T14:08:19.410Z,49.10
2018-05-23T14:10:47.638Z,49.10
2018-05-23T14:13:15.823Z,49.10
2018-05-23T14:15:44.043Z,49.20
2018-05-23T14:18:12.914Z,49.20
2018-05-23T14:20:41.134Z,49.20
2018-05-23T14:23:09.342Z,49.30
2018-05-23T14:25:37.541Z,49.30
2018-05-23T14:28:05.766Z,49.30
2018-05-23T14:30:34.732Z,49.30
2018-05-23T14:33:02.935Z,49.30
2018-05-23T14:35:31.139Z,49.40
2018-05-23T14:37:59.338Z,49.50
2018-05-23T14:40:27.555Z,49.40
2018-05-23T14:42:55.786Z,49.40
2018-05-23T14:45:23.993Z,49.40
2018-05-23T14:47:52.186Z,49.50
2018-05-23T14:50:20.387Z,49.50
2018-05-23T14:52:48.603Z,49.40
2018-05-23T14:55:16.859Z,49.50
2018-05-23T14:57:45.063Z,49.50
2018-05-23T15:00:14.049Z,49.50
2018-05-23T15:02:42.255Z,49.40
2018-05-23T15:05:10.485Z,49.50
2018-05-23T15:07:38.674Z,49.50
2018-05-23T15:10:07.662Z,49.50
2018-05-23T15:12:36.630Z,49.50
2018-05-23T15:15:04.843Z,49.50
2018-05-23T15:17:33.096Z,49.50
2018-05-23T15:20:02.134Z,49.50
2018-05-23T15:22:30.458Z,49.40
2018-05-23T15:24:58.670Z,49.40
2018-05-23T15:27:26.863Z,49.40
2018-05-23T15:29:55.181Z,49.40
2018-05-23T15:32:23.353Z,49.40
2018-05-23T15:34:51.728Z,49.40
2018-05-23T15:37:19.931Z,49.30
2018-05-23T15:39:48.178Z,49.40
2018-05-23T15:42:16.461Z,49.40
2018-05-23T15:44:44.630Z,49.50
2018-05-23T15:47:12.847Z,49.50
2018-05-23T15:49:41.077Z,49.50
2018-05-23T15:52:09.346Z,49.50
2018-05-23T15:54:37.542Z,49.40
2018-05-23T15:57:05.749Z,49.50
2018-05-23T15:59:33.951Z,49.40
2018-05-23T16:02:02.173Z,49.40
2018-05-23T16:04:31.129Z,49.30
2018-05-23T16:06:59.342Z,49.30
2018-05-23T16:09:27.618Z,49.40
2018-05-23T16:11:55.757Z,49.40
2018-05-23T16:14:23.960Z,49.50
2018-05-23T16:16:52.167Z,49.50
2018-05-23T16:19:21.278Z,49.60
2018-05-23T16:21:49.483Z,49.70
2018-05-23T16:24:17.682Z,49.70
2018-05-23T16:26:45.886Z,49.70
2018-05-23T16:29:14.099Z,50.30
2018-05-23T16:31:42.310Z,49.60
2018-05-23T16:34:10.526Z,49.70
2018-05-23T16:36:38.724Z,49.60
2018-05-23T16:39:06.930Z,49.50
2018-05-23T16:41:35.162Z,50.10
2018-05-23T16:44:03.366Z,49.40
2018-05-23T16:46:31.579Z,50.00
2018-05-23T16:48:59.762Z,49.50
2018-05-23T16:51:27.972Z,49.50
2018-05-23T16:53:56.173Z,49.60
2018-05-23T16:56:24.405Z,49.60
2018-05-23T16:58:52.633Z,49.70
2018-05-23T17:01:20.838Z,49.70
2018-05-23T17:03:49.047Z,49.60
2018-05-23T17:06:17.272Z,49.70
2018-05-23T17:08:45.472Z,49.60
2018-05-23T17:11:13.683Z,49.70
2018-05-23T17:13:41.962Z,49.50
2018-05-23T17:16:10.125Z,49.60
2018-05-23T17:18:38.407Z,49.40
2018-05-23T17:21:06.603Z,49.50
2018-05-23T17:23:34.800Z,49.60
2018-05-23T17:26:03.003Z,49.60
2018-05-23T17:28:31.981Z,49.60
2018-05-23T17:31:00.175Z,49.60
2018-05-23T17:33:29.211Z,49.40
2018-05-23T17:35:57.384Z,49.30
2018-05-23T17:38:25.583Z,50.00
2018-05-23T17:40:53.783Z,49.20
2018-05-23T17:43:22.759Z,49.70
2018-05-23T17:45:51.095Z,49.00
2018-05-23T17:48:19.419Z,48.90
2018-05-23T17:50:47.585Z,49.10
2018-05-23T17:53:15.814Z,49.10
2018-05-23T17:55:44.044Z,49.00
2018-05-23T17:58:13.032Z,48.70
2018-05-23T18:00:41.408Z,48.60
2018-05-23T18:03:10.375Z,48.60
2018-05-23T18:05:38.667Z,48.60
2018-05-23T18:08:06.815Z,48.70
2018-05-23T18:10:35.040Z,48.60
2018-05-23T18:13:03.251Z,48.50
2018-05-23T18:15:31.454Z,48.50
2018-05-23T18:17:59.662Z,48.60
2018-05-23T18:20:27.901Z,48.60
2018-05-23T18:22:56.093Z,48.50
2018-05-23T18:25:24.315Z,48.50
2018-05-23T18:27:52.539Z,48.40
2018-05-23T18:30:20.743Z,48.40
2018-05-23T18:32:48.944Z,48.40
2018-05-23T18:35:17.162Z,48.30
2018-05-23T18:37:45.358Z,48.40
2018-05-23T18:40:13.570Z,48.20
2018-05-23T18:42:41.783Z,48.20
2018-05-23T18:45:09.990Z,48.20
2018-05-23T18:47:38.198Z,48.30
2018-05-23T18:50:06.430Z,48.40
2018-05-23T18:52:34.625Z,48.60
2018-05-23T18:55:02.827Z,48.70
2018-05-23T18:57:31.031Z,48.70
2018-05-23T19:00:00.035Z,49.00
2018-05-23T19:02:32.155Z,48.90
2018-05-23T19:05:00.530Z,48.90
2018-05-23T19:07:29.528Z,49.70
2018-05-23T19:09:57.877Z,49.70
2018-05-23T19:12:26.167Z,49.30
2018-05-23T19:14:54.375Z,49.10
2018-05-23T19:17:22.618Z,48.80
2018-05-23T19:19:50.958Z,48.60
2018-05-23T19:22:19.019Z,44.40
2018-05-23T19:24:47.238Z,42.90
2018-05-23T19:27:15.443Z,43.80
2018-05-23T19:29:43.659Z,44.20
2018-05-23T19:32:11.862Z,44.40
2018-05-23T19:34:40.080Z,45.60
2018-05-23T19:37:08.338Z,46.30
2018-05-23T19:39:37.302Z,47.40
2018-05-23T19:42:05.605Z,47.40
2018-05-23T19:44:33.872Z,47.30
2018-05-23T19:47:02.118Z,47.70
2018-05-23T19:49:30.344Z,47.70
2018-05-23T19:51:58.553Z,47.60
2018-05-23T19:54:26.758Z,47.90
2018-05-23T19:56:55.081Z,48.20
2018-05-23T19:59:23.328Z,48.70
2018-05-23T20:01:51.544Z,48.60
2018-05-23T20:04:19.739Z,48.70
2018-05-23T20:06:47.951Z,48.80
2018-05-23T20:09:49.561Z,48.60
2018-05-23T20:12:17.743Z,50.00
2018-05-23T20:14:45.941Z,51.00
2018-05-23T20:17:14.210Z,50.80
2018-05-23T20:19:42.433Z,50.90
2018-05-23T20:22:10.741Z,50.70
2018-05-23T20:24:38.910Z,50.80
2018-05-23T20:27:07.122Z,50.60
2018-05-23T20:29:35.336Z,50.80
2018-05-23T20:32:03.535Z,50.70
2018-05-23T20:34:31.737Z,50.90
2018-05-23T20:36:59.931Z,50.90
2018-05-23T20:39:28.134Z,51.20
2018-05-23T20:41:56.345Z,51.10
2018-05-23T20:44:24.555Z,51.60
2018-05-23T20:46:52.751Z,51.10
2018-05-23T20:49:20.948Z,51.60
2018-05-23T20:51:49.207Z,50.90
2018-05-23T20:54:17.427Z,51.00
2018-05-23T20:56:45.620Z,51.40
2018-05-23T20:59:13.814Z,51.50
2018-05-23T21:01:42.015Z,51.40
2018-05-23T21:04:10.215Z,51.20
2018-05-23T21:06:38.422Z,50.80
2018-05-23T21:09:07.469Z,50.80
2018-05-23T21:11:35.713Z,51.60
2018-05-23T21:14:04.638Z,51.70
2018-05-23T21:16:32.875Z,51.70
2018-05-23T21:19:01.093Z,51.50
2018-05-23T21:21:29.290Z,51.10
2018-05-23T21:23:57.547Z,51.80
2018-05-23T21:26:25.792Z,52.50
2018-05-23T21:28:54.007Z,50.50
2018-05-23T21:31:23.012Z,51.10
2018-05-23T21:33:51.983Z,52.40
2018-05-23T21:36:20.180Z,52.40
2018-05-23T21:38:48.391Z,52.60
2018-05-23T21:41:16.582Z,52.50
2018-05-23T21:43:44.806Z,52.50
2018-05-23T21:46:13.015Z,52.70
2018-05-23T21:48:41.237Z,52.60
2018-05-23T21:51:09.441Z,52.60
2018-05-23T21:53:37.638Z,52.90
2018-05-23T21:56:05.851Z,53.10
2018-05-23T21:58:34.843Z,53.40
2018-05-23T22:01:03.212Z,53.30
2018-05-23T22:03:31.490Z,53.50
2018-05-23T22:05:59.711Z,53.50
2018-05-23T22:08:27.919Z,54.30
2018-05-23T22:10:56.127Z,53.80
2018-05-23T22:13:25.101Z,54.00
2018-05-23T22:15:53.349Z,54.00
2018-05-23T22:18:21.701Z,54.00
2018-05-23T22:20:49.850Z,53.90
2018-05-23T22:23:18.043Z,54.10
2018-05-23T22:25:46.280Z,54.10
2018-05-23T22:28:14.555Z,54.30
2018-05-23T22:30:42.822Z,54.90
2018-05-23T22:33:11.002Z,54.50
2018-05-23T22:35:39.229Z,54.70
2018-05-23T22:38:07.427Z,54.70
2018-05-23T22:40:35.633Z,55.00
2018-05-23T22:43:03.846Z,55.20
2018-05-23T22:45:32.064Z,55.30
2018-05-23T22:48:00.264Z,55.50
2018-05-23T22:50:28.477Z,55.60
2018-05-23T22:52:56.734Z,55.90
2018-05-23T22:55:25.673Z,56.20
2018-05-23T22:57:53.965Z,56.10
2018-05-23T23:00:22.171Z,51.30
2018-05-23T23:02:50.169Z,49.40
2018-05-23T23:05:18.431Z,48.70
2018-05-23T23:07:46.649Z,48.40
2018-05-23T23:10:15.655Z,48.40
2018-05-23T23:12:43.886Z,48.20
2018-05-23T23:15:12.094Z,48.30
2018-05-23T23:17:41.078Z,48.60
2018-05-23T23:20:09.274Z,48.60
2018-05-23T23:22:39.176Z,48.20
2018-05-23T23:25:07.370Z,48.20
2018-05-23T23:27:36.353Z,48.10
2018-05-23T23:30:05.340Z,48.70
2018-05-23T23:32:33.535Z,48.10
2018-05-23T23:35:01.764Z,48.00
2018-05-23T23:37:29.964Z,48.00
2018-05-23T23:39:58.182Z,48.00
2018-05-23T23:42:26.447Z,48.00
2018-05-23T23:44:54.630Z,48.00
2018-05-23T23:47:22.855Z,48.00
2018-05-23T23:49:51.154Z,47.90
2018-05-23T23:52:19.354Z,48.00
2018-05-23T23:54:47.572Z,48.00
2018-05-23T23:57:15.754Z,48.00
2018-05-23T23:59:44.487Z,48.00
